createdAt,value
2018-02-21T00:00:33.715Z,-0.16
2018-02-21T00:01:33.725Z,-0.23
2018-02-21T00:02:33.484Z,-0.21
2018-02-21T00:03:33.752Z,-0.22
2018-02-21T00:04:48.435Z,-0.19
2018-02-21T00:05:33.774Z,-0.15
2018-02-21T00:06:33.784Z,-0.21
2018-02-21T00:07:33.796Z,-0.21
2018-02-21T00:08:33.811Z,-0.15
2018-02-21T00:09:33.822Z,-0.16
2018-02-21T00:10:33.835Z,-0.21
2018-02-21T00:11:33.851Z,-0.28
2018-02-21T00:12:33.601Z,-0.26
2018-02-21T00:13:33.970Z,-0.28
2018-02-21T00:14:33.884Z,-0.29
2018-02-21T00:15:33.890Z,-0.28
2018-02-21T00:16:33.908Z,-0.28
2018-02-21T00:17:33.912Z,-0.28
2018-02-21T00:18:33.671Z,-0.23
2018-02-21T00:19:33.936Z,-0.28
2018-02-21T00:20:33.693Z,-0.22
2018-02-21T00:21:33.957Z,-0.26
2018-02-21T00:22:33.984Z,-0.29
2018-02-21T00:23:33.731Z,-0.21
2018-02-21T00:24:33.993Z,-0.26
2018-02-21T00:25:34.007Z,-0.23
2018-02-21T00:26:48.683Z,-0.22
2018-02-21T00:27:34.031Z,-0.31
2018-02-21T00:28:34.045Z,-0.23
2018-02-21T00:30:34.071Z,-0.25
2018-02-21T00:31:34.081Z,-0.36
2018-02-21T00:32:34.093Z,-0.34
2018-02-21T00:33:34.101Z,-0.36
2018-02-21T00:34:34.117Z,-0.34
2018-02-21T00:35:33.877Z,-0.37
2018-02-21T00:36:33.886Z,-0.4
2018-02-21T00:37:33.893Z,-0.31
2018-02-21T00:38:33.906Z,-0.34
2018-02-21T00:39:34.170Z,-0.21
2018-02-21T00:41:34.196Z,-0.26
2018-02-21T00:42:48.872Z,-0.31
2018-02-21T00:43:34.218Z,-0.39
2018-02-21T00:45:34.244Z,-0.34
2018-02-21T00:46:34.266Z,-0.36
2018-02-21T00:47:34.264Z,-0.43
2018-02-21T00:48:34.275Z,-0.43
2018-02-21T00:49:34.284Z,-0.44
2018-02-21T00:50:34.301Z,-0.42
2018-02-21T00:51:34.310Z,-0.44
2018-02-21T00:52:34.319Z,-0.22
2018-02-21T00:53:34.334Z,-0.23
2018-02-21T00:55:34.099Z,-0.36
2018-02-21T00:57:34.380Z,-0.4
2018-02-21T00:58:49.055Z,-0.42
2018-02-21T00:59:34.402Z,-0.36
2018-02-21T01:00:34.415Z,-0.34
2018-02-21T01:01:34.425Z,-0.34
2018-02-21T01:02:34.439Z,-0.43
2018-02-21T01:03:34.446Z,-0.44
2018-02-21T01:04:34.460Z,-0.43
2018-02-21T01:05:34.474Z,-0.31
2018-02-21T01:06:34.484Z,-0.39
2018-02-21T01:07:34.496Z,-0.43
2018-02-21T01:08:34.252Z,-0.46
2018-02-21T01:09:34.261Z,-0.49
2018-02-21T01:10:34.529Z,-0.37
2018-02-21T01:11:34.545Z,-0.42
2018-02-21T01:12:34.555Z,-0.43
2018-02-21T01:13:34.572Z,-0.49
2018-02-21T01:14:49.241Z,-0.43
2018-02-21T01:15:34.587Z,-0.4
2018-02-21T01:16:34.662Z,-0.4
2018-02-21T01:17:34.352Z,-0.37
2018-02-21T01:18:34.384Z,-0.43
2018-02-21T01:19:34.639Z,-0.39
2018-02-21T01:20:34.645Z,-0.54
2018-02-21T01:21:34.144Z,-0.51
2018-02-21T01:22:34.413Z,-0.54
2018-02-21T01:23:34.429Z,-0.52
2018-02-21T01:24:34.688Z,-0.51
2018-02-21T01:25:34.703Z,-0.55
2018-02-21T01:26:34.713Z,-0.54
2018-02-21T01:27:34.727Z,-0.57
2018-02-21T01:28:34.739Z,-0.52
2018-02-21T01:29:49.414Z,-0.57
2018-02-21T01:30:49.174Z,-0.6
2018-02-21T01:31:34.774Z,-0.65
2018-02-21T01:32:34.782Z,-0.62
2018-02-21T01:34:34.551Z,-0.64
2018-02-21T01:35:34.817Z,-0.69
2018-02-21T01:36:34.828Z,-0.69
2018-02-21T01:37:34.841Z,-0.67
2018-02-21T01:38:34.853Z,-0.61
2018-02-21T01:39:34.867Z,-0.67
2018-02-21T01:41:34.633Z,-0.62
2018-02-21T01:42:34.901Z,-0.64
2018-02-21T01:43:34.911Z,-0.72
2018-02-21T01:44:34.923Z,-0.8
2018-02-21T01:45:34.931Z,-0.75
2018-02-21T01:46:34.944Z,-0.67
2018-02-21T01:47:34.955Z,-0.7
2018-02-21T01:48:34.713Z,-0.67
2018-02-21T01:49:34.731Z,-0.65
2018-02-21T01:50:34.990Z,-0.67
2018-02-21T01:51:35.001Z,-0.61
2018-02-21T01:52:35.018Z,-0.82
2018-02-21T01:53:35.025Z,-0.7
2018-02-21T01:54:35.037Z,-0.75
2018-02-21T01:55:35.050Z,-0.69
2018-02-21T01:56:35.059Z,-0.73
2018-02-21T01:57:35.067Z,-0.67
2018-02-21T01:58:35.082Z,-0.67
2018-02-21T01:59:35.096Z,-0.67
2018-02-21T02:01:49.781Z,-0.72
2018-02-21T02:04:35.155Z,-0.72
2018-02-21T02:05:34.909Z,-0.67
2018-02-21T02:06:35.176Z,-0.7
2018-02-21T02:07:35.187Z,-0.67
2018-02-21T02:08:35.196Z,-0.65
2018-02-21T02:09:35.206Z,-0.86
2018-02-21T02:10:35.221Z,-0.8
2018-02-21T02:11:35.235Z,-0.82
2018-02-21T02:12:35.243Z,-0.82
2018-02-21T02:13:35.256Z,-0.85
2018-02-21T02:14:35.014Z,-0.75
2018-02-21T02:15:35.279Z,-0.83
2018-02-21T02:16:35.286Z,-0.83
2018-02-21T02:17:49.970Z,-0.82
2018-02-21T02:18:35.318Z,-0.85
2018-02-21T02:19:35.321Z,-0.91
2018-02-21T02:21:35.345Z,-0.85
2018-02-21T02:22:35.353Z,-0.86
2018-02-21T02:23:35.468Z,-0.86
2018-02-21T02:24:35.128Z,-0.91
2018-02-21T02:25:35.397Z,-0.91
2018-02-21T02:26:35.407Z,-0.89
2018-02-21T02:27:35.413Z,-0.92
2018-02-21T02:28:35.422Z,-0.92
2018-02-21T02:29:35.435Z,-0.8
2018-02-21T02:30:35.458Z,-0.94
2018-02-21T02:31:35.469Z,-0.92
2018-02-21T02:32:35.473Z,-0.86
2018-02-21T02:33:50.154Z,-0.83
2018-02-21T02:34:35.499Z,-0.91
2018-02-21T02:35:35.507Z,-0.89
2018-02-21T02:36:35.524Z,-0.91
2018-02-21T02:38:35.539Z,-0.92
2018-02-21T02:39:35.553Z,-0.91
2018-02-21T02:40:35.567Z,-0.83
2018-02-21T02:41:35.321Z,-0.92
2018-02-21T02:42:35.589Z,-0.91
2018-02-21T02:43:35.595Z,-0.92
2018-02-21T02:44:35.621Z,-0.92
2018-02-21T02:45:35.628Z,-0.95
2018-02-21T02:46:50.300Z,-0.92
2018-02-21T02:49:50.330Z,-0.91
2018-02-21T02:50:35.681Z,-0.92
2018-02-21T02:51:35.435Z,-0.97
2018-02-21T02:52:35.701Z,-0.95
2018-02-21T02:53:35.719Z,-0.97
2018-02-21T02:54:35.728Z,-1.01
2018-02-21T02:55:35.475Z,-1.01
2018-02-21T02:56:35.748Z,-0.98
2018-02-21T02:57:35.754Z,-1.02
2018-02-21T02:58:35.779Z,-0.98
2018-02-21T02:59:35.779Z,-0.99
2018-02-21T03:00:35.805Z,-0.97
2018-02-21T03:01:35.808Z,-1.12
2018-02-21T03:02:35.811Z,-1.02
2018-02-21T03:03:50.493Z,-1.02
2018-02-21T03:04:50.512Z,-0.98
2018-02-21T03:05:35.852Z,-1.04
2018-02-21T03:06:35.862Z,-0.98
2018-02-21T03:07:35.919Z,-0.94
2018-02-21T03:09:35.889Z,-1.04
2018-02-21T03:10:35.912Z,-1.07
2018-02-21T03:11:35.907Z,-1.04
2018-02-21T03:12:35.925Z,-1.15
2018-02-21T03:13:35.936Z,-1.09
2018-02-21T03:14:35.692Z,-1.15
2018-02-21T03:15:35.959Z,-0.95
2018-02-21T03:16:35.715Z,-0.94
2018-02-21T03:17:35.979Z,-0.97
2018-02-21T03:18:35.992Z,-0.97
2018-02-21T03:19:35.744Z,-0.94
2018-02-21T03:20:35.760Z,-0.98
2018-02-21T03:21:36.024Z,-0.97
2018-02-21T03:22:36.040Z,-1.01
2018-02-21T03:23:36.047Z,-0.98
2018-02-21T03:24:36.163Z,-0.98
2018-02-21T03:25:36.071Z,-0.89
2018-02-21T03:26:36.081Z,-1.12
2018-02-21T03:27:36.092Z,-1.04
2018-02-21T03:28:36.104Z,-0.98
2018-02-21T03:29:36.115Z,-1.07
2018-02-21T03:30:36.143Z,-1.02
2018-02-21T03:31:36.143Z,-0.99
2018-02-21T03:32:36.148Z,-0.98
2018-02-21T03:33:35.904Z,-1.15
2018-02-21T03:34:35.944Z,-1.07
2018-02-21T03:35:36.180Z,-1.09
2018-02-21T03:36:50.862Z,-1.13
2018-02-21T03:37:36.206Z,-1.01
2018-02-21T03:38:36.217Z,-1.1
2018-02-21T03:39:36.233Z,-1.09
2018-02-21T03:40:36.246Z,-1.15
2018-02-21T03:41:35.999Z,-1.02
2018-02-21T03:42:36.268Z,-1.02
2018-02-21T03:43:36.274Z,-1.07
2018-02-21T03:44:36.286Z,-0.98
2018-02-21T03:45:36.041Z,-0.97
2018-02-21T03:46:36.308Z,-0.97
2018-02-21T03:47:36.318Z,-0.92
2018-02-21T03:48:36.332Z,-1.01
2018-02-21T03:49:36.402Z,-1.04
2018-02-21T03:50:36.352Z,-0.98
2018-02-21T03:51:36.363Z,-1.04
2018-02-21T03:52:51.041Z,-1.01
2018-02-21T03:53:36.129Z,-0.98
2018-02-21T03:54:51.064Z,-0.97
2018-02-21T03:55:36.407Z,-0.89
2018-02-21T03:56:51.084Z,-0.95
2018-02-21T03:57:36.428Z,-0.98
2018-02-21T03:58:36.451Z,-1.01
2018-02-21T03:59:36.457Z,-0.98
2018-02-21T04:00:36.461Z,-0.98
2018-02-21T04:01:36.477Z,-1.04
2018-02-21T04:02:36.488Z,-0.98
2018-02-21T04:03:36.499Z,-0.98
2018-02-21T04:04:36.508Z,-1.07
2018-02-21T04:05:36.519Z,-1.16
2018-02-21T04:06:36.531Z,-1.15
2018-02-21T04:07:36.545Z,-1.2
2018-02-21T04:08:51.221Z,-1.22
2018-02-21T04:09:36.564Z,-1.19
2018-02-21T04:10:36.579Z,-1.28
2018-02-21T04:11:36.587Z,-1.3
2018-02-21T04:12:36.604Z,-1.13
2018-02-21T04:13:36.614Z,-1.2
2018-02-21T04:14:36.364Z,-1.25
2018-02-21T04:15:36.638Z,-1.22
2018-02-21T04:16:36.392Z,-1.28
2018-02-21T04:17:36.658Z,-1.35
2018-02-21T04:18:36.665Z,-1.34
2018-02-21T04:19:36.680Z,-1.4
2018-02-21T04:20:36.691Z,-1.45
2018-02-21T04:21:36.701Z,-1.48
2018-02-21T04:22:36.723Z,-1.52
2018-02-21T04:23:36.467Z,-1.59
2018-02-21T04:24:51.408Z,-1.64
2018-02-21T04:25:51.417Z,-1.61
2018-02-21T04:26:36.505Z,-1.54
2018-02-21T04:27:51.436Z,-1.64
2018-02-21T04:28:36.781Z,-1.64
2018-02-21T04:29:36.792Z,-1.64
2018-02-21T04:30:36.801Z,-1.66
2018-02-21T04:31:36.812Z,-1.67
2018-02-21T04:32:36.570Z,-1.66
2018-02-21T04:33:36.836Z,-1.54
2018-02-21T04:34:36.851Z,-1.59
2018-02-21T04:35:36.860Z,-1.48
2018-02-21T04:36:36.616Z,-1.52
2018-02-21T04:37:51.563Z,-1.34
2018-02-21T04:38:36.893Z,-1.41
2018-02-21T04:39:51.317Z,-1.35
2018-02-21T04:40:51.583Z,-1.31
2018-02-21T04:41:51.343Z,-1.38
2018-02-21T04:42:51.605Z,-1.41
2018-02-21T04:44:36.962Z,-1.38
2018-02-21T04:45:36.716Z,-1.41
2018-02-21T04:46:36.731Z,-1.45
2018-02-21T04:47:36.991Z,-1.4
2018-02-21T04:48:37.008Z,-1.41
2018-02-21T04:49:36.763Z,-1.41
2018-02-21T04:50:36.774Z,-1.41
2018-02-21T04:51:36.782Z,-1.41
2018-02-21T04:52:37.058Z,-1.35
2018-02-21T04:54:36.816Z,-1.54
2018-02-21T04:55:37.082Z,-1.55
2018-02-21T04:56:36.844Z,-1.51
2018-02-21T04:57:51.772Z,-1.49
2018-02-21T04:58:37.120Z,-1.52
2018-02-21T04:59:36.885Z,-1.4
2018-02-21T05:00:37.159Z,-1.41
2018-02-21T05:01:37.002Z,-1.41
2018-02-21T05:02:37.262Z,-1.41
2018-02-21T05:03:37.175Z,-1.19
2018-02-21T05:04:37.194Z,-1.2
2018-02-21T05:06:37.208Z,-1.31
2018-02-21T05:07:37.217Z,-1.28
2018-02-21T05:08:37.234Z,-1.37
2018-02-21T05:09:37.242Z,-1.33
2018-02-21T05:10:36.997Z,-1.41
2018-02-21T05:11:51.930Z,-1.35
2018-02-21T05:12:37.274Z,-1.33
2018-02-21T05:13:37.363Z,-1.35
2018-02-21T05:14:37.298Z,-1.35
2018-02-21T05:15:37.316Z,-1.34
2018-02-21T05:16:37.463Z,-1.34
2018-02-21T05:17:37.330Z,-1.33
2018-02-21T05:18:37.341Z,-1.33
2018-02-21T05:19:37.097Z,-1.35
2018-02-21T05:20:37.365Z,-1.37
2018-02-21T05:21:37.377Z,-1.38
2018-02-21T05:22:37.437Z,-1.38
2018-02-21T05:23:37.413Z,-1.35
2018-02-21T05:24:37.152Z,-1.33
2018-02-21T05:25:37.168Z,-1.4
2018-02-21T05:26:37.430Z,-1.35
2018-02-21T05:27:52.112Z,-1.35
2018-02-21T05:28:51.864Z,-1.38
2018-02-21T05:29:52.130Z,-1.41
2018-02-21T05:30:37.488Z,-1.38
2018-02-21T05:33:37.251Z,-1.49
2018-02-21T05:34:37.519Z,-1.54
2018-02-21T05:35:37.531Z,-1.54
2018-02-21T05:36:37.084Z,-1.52
2018-02-21T05:37:37.557Z,-1.59
2018-02-21T05:38:37.567Z,-1.61
2018-02-21T05:39:37.675Z,-1.55
2018-02-21T05:40:37.587Z,-1.61
2018-02-21T05:41:37.341Z,-1.54
2018-02-21T05:42:37.613Z,-1.74
2018-02-21T05:43:52.285Z,-1.72
2018-02-21T05:44:37.629Z,-1.61
2018-02-21T05:47:52.328Z,-1.67
2018-02-21T05:48:37.420Z,-1.67
2018-02-21T05:49:37.686Z,-1.67
2018-02-21T05:50:37.440Z,-1.64
2018-02-21T05:51:37.711Z,-1.58
2018-02-21T05:52:37.718Z,-1.62
2018-02-21T05:53:37.735Z,-1.62
2018-02-21T05:54:37.738Z,-1.55
2018-02-21T05:55:37.754Z,-1.49
2018-02-21T05:56:37.762Z,-1.55
2018-02-21T05:58:37.785Z,-1.61
2018-02-21T05:59:52.541Z,-1.58
2018-02-21T06:00:37.816Z,-1.45
2018-02-21T06:01:37.819Z,-1.58
2018-02-21T06:02:37.829Z,-1.55
2018-02-21T06:03:37.843Z,-1.52
2018-02-21T06:04:37.849Z,-1.52
2018-02-21T06:05:37.608Z,-1.58
2018-02-21T06:06:37.619Z,-1.52
2018-02-21T06:07:37.984Z,-1.55
2018-02-21T06:08:37.900Z,-1.51
2018-02-21T06:09:37.651Z,-1.62
2018-02-21T06:10:37.919Z,-1.51
2018-02-21T06:11:37.675Z,-1.61
2018-02-21T06:12:37.683Z,-1.59
2018-02-21T06:13:37.953Z,-1.55
2018-02-21T06:14:52.637Z,-1.58
2018-02-21T06:15:37.979Z,-1.59
2018-02-21T06:16:37.988Z,-1.58
2018-02-21T06:17:37.998Z,-1.61
2018-02-21T06:18:38.103Z,-1.59
2018-02-21T06:19:38.019Z,-1.59
2018-02-21T06:21:37.783Z,-1.61
2018-02-21T06:22:38.055Z,-1.55
2018-02-21T06:23:38.065Z,-1.48
2018-02-21T06:24:37.822Z,-1.52
2018-02-21T06:25:38.087Z,-1.43
2018-02-21T06:26:38.097Z,-1.41
2018-02-21T06:27:37.853Z,-1.41
2018-02-21T06:28:38.119Z,-1.33
2018-02-21T06:29:38.131Z,-1.34
2018-02-21T06:30:52.808Z,-1.27
2018-02-21T06:32:38.169Z,-1.19
2018-02-21T06:33:38.175Z,-1.15
2018-02-21T06:34:38.188Z,-1.02
2018-02-21T06:35:38.195Z,-1.12
2018-02-21T06:36:38.208Z,-1.02
2018-02-21T06:37:38.218Z,-1.19
2018-02-21T06:38:38.234Z,-1.07
2018-02-21T06:39:38.248Z,-1.07
2018-02-21T06:40:38.262Z,-1.02
2018-02-21T06:41:38.363Z,-0.99
2018-02-21T06:42:38.275Z,-0.99
2018-02-21T06:43:38.286Z,-0.94
2018-02-21T06:44:38.296Z,-0.95
2018-02-21T06:45:38.309Z,-0.89
2018-02-21T06:46:52.997Z,-0.91
2018-02-21T06:49:38.359Z,-0.76
2018-02-21T06:50:37.857Z,-0.85
2018-02-21T06:51:37.877Z,-0.79
2018-02-21T06:52:38.139Z,-0.8
2018-02-21T06:53:38.405Z,-0.76
2018-02-21T06:55:38.428Z,-0.67
2018-02-21T06:56:38.448Z,-0.7
2018-02-21T06:57:38.460Z,-0.75
2018-02-21T06:58:38.462Z,-0.7
2018-02-21T06:59:38.480Z,-0.72
2018-02-21T07:00:38.492Z,-0.72
2018-02-21T07:01:53.210Z,-0.58
2018-02-21T07:02:53.179Z,-0.67
2018-02-21T07:03:38.530Z,-0.61
2018-02-21T07:04:53.202Z,-0.54
2018-02-21T07:05:38.291Z,-0.44
2018-02-21T07:06:38.302Z,-0.47
2018-02-21T07:07:38.572Z,-0.4
2018-02-21T07:08:38.582Z,-0.46
2018-02-21T07:09:38.593Z,-0.37
2018-02-21T07:10:38.453Z,-0.33
2018-02-21T07:11:38.618Z,-0.34
2018-02-21T07:12:38.632Z,-0.15
2018-02-21T07:13:53.315Z,-0.18
2018-02-21T07:14:38.656Z,-0.18
2018-02-21T07:15:38.786Z,-0.19
2018-02-21T07:16:38.682Z,-0.14
2018-02-21T07:17:38.697Z,-0.19
2018-02-21T07:18:53.368Z,-0.15
2018-02-21T07:19:38.716Z,-0.16
2018-02-21T07:20:53.394Z,-0.11
2018-02-21T07:21:38.751Z,-0.16
2018-02-21T07:22:38.496Z,-0.15
2018-02-21T07:23:38.770Z,-0.21
2018-02-21T07:24:38.780Z,-0.18
2018-02-21T07:25:38.793Z,-0.1
2018-02-21T07:26:38.809Z,-0.01
2018-02-21T07:27:38.816Z,-0.14
2018-02-21T07:28:38.833Z,-0.07
2018-02-21T07:29:38.843Z,-0.07
2018-02-21T07:30:38.855Z,-0.1
2018-02-21T07:31:38.609Z,-0.16
2018-02-21T07:32:38.877Z,-0.19
2018-02-21T07:33:38.891Z,-0.11
2018-02-21T07:34:53.568Z,-0.07
2018-02-21T07:35:38.919Z,0.03
2018-02-21T07:36:38.677Z,0.04
2018-02-21T07:37:38.685Z,0.21
2018-02-21T07:38:38.953Z,0.36
2018-02-21T07:39:38.975Z,0.5
2018-02-21T07:40:38.725Z,0.47
2018-02-21T07:41:38.997Z,0.6
2018-02-21T07:42:38.496Z,0.44
2018-02-21T07:43:38.764Z,0.47
2018-02-21T07:44:39.035Z,0.6
2018-02-21T07:45:39.049Z,0.68
2018-02-21T07:46:39.062Z,0.72
2018-02-21T07:47:39.075Z,0.84
2018-02-21T07:48:38.835Z,0.69
2018-02-21T07:49:53.785Z,0.78
2018-02-21T07:50:38.869Z,0.83
2018-02-21T07:51:53.549Z,0.91
2018-02-21T07:53:39.167Z,0.9
2018-02-21T07:54:39.179Z,1.02
2018-02-21T07:55:39.195Z,1.04
2018-02-21T07:56:39.211Z,1.15
2018-02-21T07:57:39.224Z,1.14
2018-02-21T07:58:39.259Z,1.26
2018-02-21T07:59:39.274Z,1.3
2018-02-21T08:00:39.269Z,1.54
2018-02-21T08:01:38.776Z,1.51
2018-02-21T08:02:39.306Z,1.36
2018-02-21T08:03:39.338Z,1.34
2018-02-21T08:04:39.332Z,1.18
2018-02-21T08:05:39.353Z,1.15
2018-02-21T08:06:39.167Z,1.34
2018-02-21T08:07:39.382Z,1.52
2018-02-21T08:08:39.400Z,1.58
2018-02-21T08:09:39.158Z,1.69
2018-02-21T08:10:39.426Z,1.79
2018-02-21T08:11:38.931Z,1.86
2018-02-21T08:13:39.476Z,1.91
2018-02-21T08:14:39.491Z,1.99
2018-02-21T08:15:39.506Z,1.98
2018-02-21T08:16:39.272Z,2.05
2018-02-21T08:17:39.536Z,2.18
2018-02-21T08:18:39.552Z,2.31
2018-02-21T08:19:39.314Z,2.35
2018-02-21T08:20:39.588Z,2.39
2018-02-21T08:21:54.269Z,2.45
2018-02-21T08:22:39.616Z,2.42
2018-02-21T08:23:39.630Z,2.45
2018-02-21T08:24:39.648Z,2.45
2018-02-21T08:25:39.407Z,2.54
2018-02-21T08:26:39.690Z,2.56
2018-02-21T08:27:39.540Z,2.57
2018-02-21T08:28:39.492Z,2.46
2018-02-21T08:29:39.476Z,2.46
2018-02-21T08:30:39.488Z,2.54
2018-02-21T08:31:39.759Z,2.61
2018-02-21T08:32:39.522Z,2.64
2018-02-21T08:33:39.790Z,2.74
2018-02-21T08:34:39.880Z,2.57
2018-02-21T08:35:39.823Z,2.56
2018-02-21T08:36:39.946Z,2.6
2018-02-21T08:37:54.523Z,2.84
2018-02-21T08:38:39.615Z,2.74
2018-02-21T08:39:39.885Z,2.85
2018-02-21T08:40:39.684Z,2.77
2018-02-21T08:41:39.664Z,2.81
2018-02-21T08:42:39.949Z,2.77
2018-02-21T08:43:39.696Z,2.81
2018-02-21T08:44:39.713Z,2.87
2018-02-21T08:45:39.989Z,2.89
2018-02-21T08:46:39.756Z,2.84
2018-02-21T08:47:40.017Z,2.93
2018-02-21T08:48:40.040Z,2.85
2018-02-21T08:49:39.798Z,2.89
2018-02-21T08:50:39.812Z,2.89
2018-02-21T08:51:39.826Z,2.92
2018-02-21T08:52:40.104Z,2.96
2018-02-21T08:53:54.784Z,2.81
2018-02-21T08:54:40.133Z,2.79
2018-02-21T08:55:40.146Z,2.79
2018-02-21T08:56:40.162Z,2.87
2018-02-21T08:57:40.197Z,3.02
2018-02-21T08:58:40.200Z,3.13
2018-02-21T08:59:40.214Z,3.18
2018-02-21T09:00:40.228Z,3.18
2018-02-21T09:01:39.991Z,3.13
2018-02-21T09:02:40.006Z,3.24
2018-02-21T09:03:40.282Z,3.15
2018-02-21T09:04:40.295Z,3.18
2018-02-21T09:05:40.321Z,3.28
2018-02-21T09:06:40.405Z,3.28
2018-02-21T09:07:40.090Z,3.21
2018-02-21T09:08:40.399Z,3.2
2018-02-21T09:09:54.791Z,3.35
2018-02-21T09:10:40.494Z,3.4
2018-02-21T09:11:40.418Z,3.47
2018-02-21T09:12:40.426Z,3.6
2018-02-21T09:13:40.446Z,3.69
2018-02-21T09:15:40.479Z,3.91
2018-02-21T09:16:40.763Z,3.68
2018-02-21T09:17:40.518Z,3.62
2018-02-21T09:18:40.526Z,3.69
2018-02-21T09:19:40.554Z,3.6
2018-02-21T09:20:40.314Z,3.58
2018-02-21T09:21:40.707Z,3.52
2018-02-21T09:22:40.341Z,3.32
2018-02-21T09:23:40.613Z,3.31
2018-02-21T09:24:55.301Z,3.39
2018-02-21T09:25:40.651Z,3.26
2018-02-21T09:26:40.411Z,3.2
2018-02-21T09:27:40.688Z,3.14
2018-02-21T09:28:40.445Z,3.2
2018-02-21T09:29:40.716Z,3.32
2018-02-21T09:30:40.734Z,3.51
2018-02-21T09:31:40.757Z,3.61
2018-02-21T09:32:40.884Z,3.86
2018-02-21T09:33:40.796Z,3.88
2018-02-21T09:34:40.549Z,3.98
2018-02-21T09:35:40.818Z,4.02
2018-02-21T09:38:40.615Z,3.72
2018-02-21T09:39:40.889Z,3.6
2018-02-21T09:40:40.904Z,3.69
2018-02-21T09:41:55.589Z,3.51
2018-02-21T09:42:40.941Z,3.61
2018-02-21T09:43:55.622Z,3.83
2018-02-21T09:44:40.972Z,3.88
2018-02-21T09:45:40.989Z,3.93
2018-02-21T09:46:40.749Z,3.86
2018-02-21T09:47:41.025Z,3.76
2018-02-21T09:48:41.039Z,3.78
2018-02-21T09:49:41.057Z,3.97
2018-02-21T09:50:41.074Z,3.98
2018-02-21T09:51:40.889Z,4.05
2018-02-21T09:52:41.112Z,4.02
2018-02-21T09:53:41.131Z,4.09
2018-02-21T09:54:41.156Z,4.2
2018-02-21T09:55:40.914Z,4.29
2018-02-21T09:56:55.847Z,4.4
2018-02-21T09:57:41.196Z,4.44
2018-02-21T09:58:41.228Z,4.52
2018-02-21T09:59:55.903Z,4.34
2018-02-21T10:01:41.269Z,4.08
2018-02-21T10:02:41.026Z,3.97
2018-02-21T10:03:41.297Z,3.94
2018-02-21T10:04:41.321Z,3.98
2018-02-21T10:05:41.345Z,4.12
2018-02-21T10:06:41.096Z,4.04
2018-02-21T10:07:41.374Z,4.05
2018-02-21T10:08:41.388Z,4.02
2018-02-21T10:09:41.406Z,4.09
2018-02-21T10:10:41.430Z,4.05
2018-02-21T10:11:41.185Z,4.24
2018-02-21T10:12:56.122Z,4.44
2018-02-21T10:13:41.481Z,4.52
2018-02-21T10:14:41.496Z,4.54
2018-02-21T10:15:41.516Z,4.62
2018-02-21T10:16:41.270Z,4.82
2018-02-21T10:17:41.546Z,4.7
2018-02-21T10:18:41.560Z,4.8
2018-02-21T10:19:41.578Z,4.96
2018-02-21T10:20:41.601Z,4.85
2018-02-21T10:21:41.614Z,4.86
2018-02-21T10:22:41.634Z,4.91
2018-02-21T10:23:41.648Z,4.97
2018-02-21T10:24:41.675Z,4.97
2018-02-21T10:25:41.430Z,5.09
2018-02-21T10:26:56.372Z,5.24
2018-02-21T10:27:41.466Z,5.13
2018-02-21T10:28:56.409Z,5.2
2018-02-21T10:29:56.423Z,5.2
2018-02-21T10:30:41.520Z,5.27
2018-02-21T10:31:41.790Z,5.06
2018-02-21T10:32:41.812Z,4.88
2018-02-21T10:33:41.824Z,4.8
2018-02-21T10:34:41.841Z,4.66
2018-02-21T10:35:41.859Z,4.58
2018-02-21T10:36:41.619Z,4.69
2018-02-21T10:37:41.892Z,4.84
2018-02-21T10:38:41.911Z,4.77
2018-02-21T10:39:41.927Z,4.91
2018-02-21T10:40:41.690Z,4.96
2018-02-21T10:41:41.962Z,5.25
2018-02-21T10:42:41.984Z,5.3
2018-02-21T10:43:41.995Z,5.2
2018-02-21T10:44:56.426Z,5.12
2018-02-21T10:45:56.698Z,4.96
2018-02-21T10:46:42.049Z,5
2018-02-21T10:47:42.068Z,5.1
2018-02-21T10:48:41.838Z,5.04
2018-02-21T10:49:42.144Z,4.91
2018-02-21T10:50:42.117Z,4.78
2018-02-21T10:51:42.165Z,4.75
2018-02-21T10:52:42.153Z,4.96
2018-02-21T10:53:42.171Z,5
2018-02-21T10:54:42.186Z,5.22
2018-02-21T10:55:42.208Z,5.35
2018-02-21T10:56:41.965Z,5.28
2018-02-21T10:57:42.244Z,5.46
2018-02-21T10:58:41.999Z,5.48
2018-02-21T10:59:56.949Z,5.43
2018-02-21T11:00:42.038Z,5.28
2018-02-21T11:01:43.306Z,4.97
2018-02-21T11:02:42.325Z,4.92
2018-02-21T11:03:42.342Z,4.97
2018-02-21T11:04:42.368Z,5.15
2018-02-21T11:05:42.380Z,5.15
2018-02-21T11:06:42.391Z,5.13
2018-02-21T11:07:42.151Z,5.27
2018-02-21T11:09:42.440Z,4.91
2018-02-21T11:10:42.460Z,4.85
2018-02-21T11:11:42.482Z,4.77
2018-02-21T11:12:57.164Z,4.8
2018-02-21T11:13:57.180Z,4.78
2018-02-21T11:14:42.534Z,4.8
2018-02-21T11:15:42.290Z,5
2018-02-21T11:16:57.231Z,4.86
2018-02-21T11:17:42.321Z,4.77
2018-02-21T11:18:42.599Z,4.72
2018-02-21T11:19:42.359Z,4.82
2018-02-21T11:20:42.375Z,4.96
2018-02-21T11:21:42.389Z,4.69
2018-02-21T11:22:42.409Z,4.42
2018-02-21T11:23:42.580Z,4.47
2018-02-21T11:24:42.692Z,4.58
2018-02-21T11:25:42.711Z,4.63
2018-02-21T11:26:42.724Z,4.67
2018-02-21T11:27:57.415Z,4.63
2018-02-21T11:28:42.758Z,4.65
2018-02-21T11:29:42.522Z,4.7
2018-02-21T11:30:42.535Z,4.85
2018-02-21T11:31:57.482Z,4.99
2018-02-21T11:32:42.315Z,4.96
2018-02-21T11:34:42.605Z,4.84
2018-02-21T11:36:42.889Z,4.69
2018-02-21T11:37:42.653Z,4.62
2018-02-21T11:38:42.922Z,4.67
2018-02-21T11:39:42.940Z,4.69
2018-02-21T11:40:42.956Z,4.66
2018-02-21T11:41:42.976Z,4.77
2018-02-21T11:42:42.987Z,4.8
2018-02-21T11:43:43.007Z,4.6
2018-02-21T11:44:43.022Z,4.73
2018-02-21T11:45:43.040Z,4.78
2018-02-21T11:46:43.052Z,4.77
2018-02-21T11:47:57.736Z,4.82
2018-02-21T11:49:43.104Z,4.97
2018-02-21T11:50:43.120Z,4.85
2018-02-21T11:51:43.142Z,4.72
2018-02-21T11:52:42.897Z,4.85
2018-02-21T11:53:43.171Z,4.78
2018-02-21T11:54:43.183Z,4.82
2018-02-21T11:55:43.208Z,4.77
2018-02-21T11:56:43.219Z,4.72
2018-02-21T11:57:43.079Z,4.66
2018-02-21T11:58:43.247Z,4.66
2018-02-21T11:59:43.271Z,4.66
2018-02-21T12:00:43.285Z,4.86
2018-02-21T12:01:43.303Z,4.85
2018-02-21T12:02:43.104Z,4.65
2018-02-21T12:03:57.998Z,4.78
2018-02-21T12:04:43.390Z,4.77
2018-02-21T12:05:43.373Z,4.8
2018-02-21T12:06:43.380Z,4.78
2018-02-21T12:07:43.396Z,4.67
2018-02-21T12:09:43.458Z,4.72
2018-02-21T12:10:43.450Z,4.62
2018-02-21T12:11:43.456Z,4.59
2018-02-21T12:12:43.477Z,4.44
2018-02-21T12:13:43.496Z,4.51
2018-02-21T12:14:43.506Z,4.5
2018-02-21T12:15:43.530Z,4.52
2018-02-21T12:16:43.540Z,4.58
2018-02-21T12:17:58.230Z,4.5
2018-02-21T12:18:43.571Z,4.54
2018-02-21T12:19:58.358Z,4.48
2018-02-21T12:20:43.618Z,4.48
2018-02-21T12:21:43.622Z,4.36
2018-02-21T12:22:43.630Z,4.34
2018-02-21T12:23:43.653Z,4.22
2018-02-21T12:24:43.662Z,4.24
2018-02-21T12:25:43.685Z,4.2
2018-02-21T12:28:11.161Z,4.27
2018-02-21T12:28:43.525Z,4.24
2018-02-21T12:29:43.558Z,4.27
2018-02-21T12:30:43.513Z,4.37
2018-02-21T12:31:58.464Z,4.34
2018-02-21T12:32:43.841Z,4.34
2018-02-21T12:33:43.836Z,4.33
2018-02-21T12:34:58.528Z,4.37
2018-02-21T12:35:43.608Z,4.34
2018-02-21T12:36:43.903Z,4.34
2018-02-21T12:37:43.977Z,4.34
2018-02-21T12:38:43.924Z,4.42
2018-02-21T12:39:43.935Z,4.58
2018-02-21T12:40:58.687Z,4.51
2018-02-21T12:41:43.971Z,4.59
2018-02-21T12:42:43.739Z,4.69
2018-02-21T12:43:43.991Z,4.72
2018-02-21T12:44:44.035Z,4.69
2018-02-21T12:45:44.025Z,4.73
2018-02-21T12:46:58.709Z,4.65
2018-02-21T12:47:44.050Z,4.75
2018-02-21T12:48:44.083Z,4.85
2018-02-21T12:49:44.088Z,5.04
2018-02-21T12:50:44.125Z,4.97
2018-02-21T12:51:44.143Z,5.04
2018-02-21T12:52:43.873Z,4.96
2018-02-21T12:53:44.170Z,4.89
2018-02-21T12:54:43.916Z,4.94
2018-02-21T12:55:44.198Z,5.09
2018-02-21T12:56:44.197Z,5.03
2018-02-21T12:57:44.233Z,5.07
2018-02-21T13:00:44.290Z,4.77
2018-02-21T13:01:44.278Z,4.72
2018-02-21T13:02:44.307Z,4.62
2018-02-21T13:03:44.325Z,4.65
2018-02-21T13:04:44.350Z,4.69
2018-02-21T13:05:44.371Z,4.7
2018-02-21T13:06:59.019Z,4.65
2018-02-21T13:07:44.436Z,4.66
2018-02-21T13:08:44.405Z,4.66
2018-02-21T13:09:44.412Z,4.86
2018-02-21T13:10:44.180Z,4.84
2018-02-21T13:11:44.432Z,4.86
2018-02-21T13:12:44.461Z,4.7
2018-02-21T13:13:44.474Z,4.84
2018-02-21T13:14:59.136Z,4.84
2018-02-21T13:15:44.520Z,4.78
2018-02-21T13:16:44.516Z,4.89
2018-02-21T13:17:44.573Z,5.1
2018-02-21T13:18:44.536Z,5.17
2018-02-21T13:19:44.570Z,5.27
2018-02-21T13:20:44.339Z,5.4
2018-02-21T13:21:44.070Z,5.39
2018-02-21T13:22:59.273Z,5.36
2018-02-21T13:23:44.743Z,5.35
2018-02-21T13:24:44.663Z,5.31
2018-02-21T13:25:44.673Z,5.18
2018-02-21T13:26:44.677Z,5.06
2018-02-21T13:27:44.716Z,4.92
2018-02-21T13:28:44.700Z,5.04
2018-02-21T13:30:44.755Z,5.17
2018-02-21T13:31:44.770Z,5.28
2018-02-21T13:32:44.774Z,5.33
2018-02-21T13:33:44.782Z,5.39
2018-02-21T13:34:44.808Z,5.57
2018-02-21T13:35:44.580Z,5.57
2018-02-21T13:36:44.579Z,5.21
2018-02-21T13:37:44.900Z,5.09
2018-02-21T13:38:59.514Z,5.06
2018-02-21T13:39:44.648Z,5.07
2018-02-21T13:40:59.365Z,4.96
2018-02-21T13:41:44.935Z,5.06
2018-02-21T13:42:44.928Z,4.99
2018-02-21T13:43:44.427Z,4.99
2018-02-21T13:44:44.718Z,4.84
2018-02-21T13:45:45.003Z,4.78
2018-02-21T13:46:44.748Z,4.86
2018-02-21T13:47:45.082Z,4.75
2018-02-21T13:48:44.777Z,4.77
2018-02-21T13:49:44.796Z,4.8